map of TNR home
TNR - Airport
Location
City:  Antananarivo, Madagascar
Near (Alt.):Tananarive
Name:Ivato International Airport
ICAO:FMMI
IATA:TNR

Details
Type:Airport (Aerodrome, Airfield)
Use:Public/Civil, Military, International (customs port of entry)
Latitude:1847'49"S (-18.796949)
Longitude:4728'44"E (47.478806)
Datum:WGS 1984
Elevation:4198 ft (1280 m)
Variation:15.19W (WMM2015 magnetic declination)
-0.03 annual change
Runways:1
Longest:10171 × 148 ft (3100 × 45 m), paved

Time
Time Zone:UTC+3
Local Time:

Weather
METAR:FMMI 180630Z VRB06KT 9999 SCT020 24/15 Q1022 NOSIG
TAF:FMMI 180500Z 1806/1912 12008KT 9999 BKN019 PROB40
TEMPO 1813/1820 4000 TSRA

Related Locations
Nearby:
Farthest:MMCD: 11174 mi / 17983 km
Cedros [Isla de Cedros Airport], Isla de Cedros, BCN, MX

Find:

   beyond  
but within

Other Information
Maps:
NOTAMs:
Links:
Sources:

  
  • flag of Madagascar
  

Sectional Chart

Flight Planning
at skyvector.com

Satellite Image

Google Maps Satellite view

 

Copyright © 2004-2018 Karl L. Swartz. All rights reserved.
The Great Circle Mapper name and logo are trademarks of the Great Circle Mapper.
All other trademarks mentioned herein belong to their respective owners.
Please see credits for attibutions and further copyright information.

  Follow gcmap on Facebook Follow gcmap on Twitter Follow gcmap on Google+ GCmap on LinkedIn

hCard Microformat

Geo Microformat